CPX242 Details

Departure: Huntsville International Airport (KHSV)
Arrival: Chicago/Rockford International Airport (KRFD)
Route: RQZ BNA J73 GUIDO JOT


Current Weather Information
KHSV 251053Z 00000KT 9SM FEW070 22/20 A3015 RMK AO2 SLP200 T02170200
KRFD 251054Z 20007KT 10SM SCT130 BKN170 19/16 A2988 RMK AO2 SLP115 T01940161